createdAt,value
2018-10-12T00:04:48.699Z,11.37
2018-10-12T00:09:52.339Z,11.57
2018-10-12T00:14:56.004Z,11.30
2018-10-12T00:19:59.635Z,12.93
2018-10-12T00:25:03.374Z,11.80
2018-10-12T00:30:07.065Z,12.13
2018-10-12T00:35:10.795Z,12.53
2018-10-12T00:40:14.429Z,13.00
2018-10-12T00:45:18.127Z,13.30
2018-10-12T00:50:21.755Z,14.60
2018-10-12T00:55:26.283Z,12.70
2018-10-12T01:00:29.914Z,13.93
2018-10-12T01:05:33.533Z,13.30
2018-10-12T01:10:37.182Z,14.73
2018-10-12T01:15:40.837Z,13.93
2018-10-12T01:20:44.446Z,12.87
2018-10-12T01:25:48.167Z,12.80
2018-10-12T01:30:51.887Z,12.57
2018-10-12T01:35:55.627Z,12.93
2018-10-12T01:40:59.260Z,13.30
2018-10-12T01:46:02.884Z,12.90
2018-10-12T01:51:06.786Z,13.77
2018-10-12T01:56:10.486Z,14.13
2018-10-12T02:01:14.105Z,14.13
2018-10-12T02:06:17.725Z,13.20
2018-10-12T02:11:21.339Z,13.80
2018-10-12T02:16:24.954Z,14.33
2018-10-12T02:21:28.574Z,14.77
2018-10-12T02:26:32.190Z,15.20
2018-10-12T02:31:35.831Z,13.83
2018-10-12T02:36:39.735Z,15.07
2018-10-12T02:41:43.350Z,15.07
2018-10-12T02:46:46.966Z,14.10
2018-10-12T02:51:50.586Z,16.33
2018-10-12T02:56:54.207Z,14.60
2018-10-12T03:01:57.819Z,15.77
2018-10-12T03:07:01.455Z,14.53
2018-10-12T03:12:05.069Z,16.30
2018-10-12T03:17:08.692Z,16.13
2018-10-12T03:22:12.906Z,16.90
2018-10-12T03:27:16.564Z,15.70
2018-10-12T03:32:20.151Z,15.33
2018-10-12T03:37:23.834Z,15.48
2018-10-12T03:42:27.383Z,14.07
2018-10-12T03:47:31.006Z,15.53
2018-10-12T03:52:34.711Z,15.40
2018-10-12T03:57:38.322Z,14.53
2018-10-12T04:02:41.962Z,16.00
2018-10-12T04:07:45.869Z,15.20
2018-10-12T04:12:49.487Z,15.57
2018-10-12T04:17:53.107Z,14.70
2018-10-12T04:22:56.744Z,16.00
2018-10-12T04:28:00.358Z,15.57
2018-10-12T04:33:03.978Z,16.57
2018-10-12T04:38:07.595Z,17.30
2018-10-12T04:43:11.214Z,18.27
2018-10-12T04:48:14.835Z,15.87
2018-10-12T04:53:18.450Z,15.93
2018-10-12T04:58:22.067Z,17.53
2018-10-12T05:03:25.692Z,15.33
2018-10-12T05:08:29.340Z,17.13
2018-10-12T05:13:34.020Z,16.67
2018-10-12T05:18:37.669Z,17.73
2018-10-12T05:23:41.289Z,17.53
2018-10-12T05:28:44.916Z,17.37
2018-10-12T05:33:48.587Z,15.97
2018-10-12T05:38:53.039Z,16.00
2018-10-12T05:43:56.708Z,18.80
2018-10-12T05:49:11.691Z,17.07
2018-10-12T05:54:15.371Z,17.43
2018-10-12T05:59:18.994Z,18.40
2018-10-12T06:04:22.607Z,17.97
2018-10-12T06:09:26.303Z,18.03
2018-10-12T06:14:29.847Z,18.87
2018-10-12T06:19:33.495Z,17.40
2018-10-12T06:24:37.609Z,18.40
2018-10-12T06:29:41.784Z,17.97
2018-10-12T06:34:45.500Z,18.33
2018-10-12T06:39:51.021Z,16.47
2018-10-12T06:44:54.754Z,17.47
2018-10-12T06:49:58.369Z,18.30
2018-10-12T06:55:01.986Z,18.00
2018-10-12T07:00:05.961Z,18.00
2018-10-12T07:05:09.554Z,17.37
2018-10-12T07:10:13.310Z,17.43
2018-10-12T07:15:16.947Z,16.77
2018-10-12T07:20:20.648Z,17.50
2018-10-12T07:25:24.332Z,18.87
2018-10-12T07:30:28.648Z,17.53
2018-10-12T07:35:33.055Z,17.10
2018-10-12T07:40:36.865Z,19.27
2018-10-12T07:45:40.646Z,16.60
2018-10-12T07:50:44.300Z,14.70
2018-10-12T07:55:48.031Z,17.00
2018-10-12T08:00:51.737Z,15.97
2018-10-12T08:05:55.394Z,13.90
2018-10-12T08:10:59.046Z,15.47
2018-10-12T08:16:03.231Z,14.53
2018-10-12T08:21:07.166Z,15.17
2018-10-12T08:26:10.947Z,15.07
2018-10-12T08:31:21.455Z,14.00
2018-10-12T08:36:25.123Z,14.60
2018-10-12T08:41:28.740Z,14.30
2018-10-12T08:46:32.559Z,15.13
2018-10-12T08:51:36.443Z,14.77
2018-10-12T08:56:40.255Z,13.17
2018-10-12T09:01:43.957Z,14.00
2018-10-12T09:06:47.586Z,15.97
2018-10-12T09:11:51.455Z,14.97
2018-10-12T09:16:55.075Z,15.10
2018-10-12T09:21:58.778Z,15.17
2018-10-12T09:27:02.388Z,14.80
2018-10-12T09:32:05.966Z,16.67
2018-10-12T09:37:09.615Z,15.50
2018-10-12T09:42:13.314Z,17.53
2018-10-12T09:47:16.954Z,14.43
2018-10-12T09:52:20.623Z,14.70
2018-10-12T09:57:31.515Z,17.17
2018-10-12T10:02:40.542Z,14.43
2018-10-12T10:07:44.357Z,13.47
2018-10-12T10:12:47.860Z,13.17
2018-10-12T10:17:51.512Z,13.47
2018-10-12T10:22:55.136Z,13.40
2018-10-12T10:27:58.749Z,11.93
2018-10-12T10:33:02.387Z,13.63
2018-10-12T10:38:06.338Z,12.63
2018-10-12T10:43:10.006Z,12.20
2018-10-12T10:48:13.627Z,10.93
2018-10-12T10:53:17.243Z,11.57
2018-10-12T10:58:20.883Z,13.10
2018-10-12T11:03:24.491Z,11.73
2018-10-12T11:08:28.107Z,12.83
2018-10-12T11:13:31.729Z,12.10
2018-10-12T11:18:35.372Z,11.50
2018-10-12T11:23:38.995Z,12.80
2018-10-12T11:28:42.653Z,11.93
2018-10-12T11:33:46.303Z,11.27
2018-10-12T11:38:50.099Z,11.40
2018-10-12T11:43:53.747Z,11.50
2018-10-12T11:48:57.371Z,10.87
2018-10-12T11:54:01.246Z,10.53
2018-10-12T11:59:04.926Z,9.67
2018-10-12T12:04:08.534Z,9.70
2018-10-12T12:09:12.148Z,10.87
2018-10-12T12:14:15.908Z,9.97
2018-10-12T12:19:19.614Z,11.27
2018-10-12T12:24:23.239Z,10.77
2018-10-12T12:29:26.875Z,11.07
2018-10-12T12:34:30.703Z,10.40
2018-10-12T12:39:34.250Z,11.67
2018-10-12T12:44:37.964Z,10.50
2018-10-12T12:49:41.572Z,9.43
2018-10-12T12:54:45.236Z,9.67
2018-10-12T12:59:48.831Z,10.90
2018-10-12T13:04:52.450Z,10.13
2018-10-12T13:09:56.078Z,9.83
2018-10-12T13:14:59.699Z,10.40
2018-10-12T13:20:03.326Z,10.20
2018-10-12T13:25:07.045Z,9.20
2018-10-12T13:30:10.662Z,9.47
2018-10-12T13:35:14.427Z,9.73
2018-10-12T13:40:18.078Z,8.20
2018-10-12T13:45:21.698Z,9.30
2018-10-12T13:50:25.323Z,8.37
2018-10-12T13:55:29.047Z,8.03
2018-10-12T14:00:32.692Z,8.63
2018-10-12T14:05:36.315Z,9.43
2018-10-12T14:10:39.958Z,8.17
2018-10-12T14:15:43.684Z,11.20
2018-10-12T14:20:47.312Z,8.10
2018-10-12T14:25:51.051Z,8.67
2018-10-12T14:30:54.684Z,8.33
2018-10-12T14:35:58.315Z,8.20
2018-10-12T14:41:02.023Z,8.03
2018-10-12T14:46:06.155Z,10.33
2018-10-12T14:51:09.906Z,8.97
2018-10-12T14:56:13.699Z,8.57
2018-10-12T15:01:17.376Z,8.77
2018-10-12T15:06:20.955Z,9.20
2018-10-12T15:11:24.638Z,8.30
2018-10-12T15:16:28.242Z,7.60
2018-10-12T15:21:31.976Z,10.50
2018-10-12T15:26:35.532Z,10.10
2018-10-12T15:31:39.167Z,10.10
2018-10-12T15:36:42.811Z,9.23
2018-10-12T15:41:46.423Z,8.53
2018-10-12T15:46:50.050Z,8.50
2018-10-12T15:51:53.665Z,9.00
2018-10-12T15:56:57.328Z,9.90
2018-10-12T16:02:00.965Z,10.20
2018-10-12T16:07:04.543Z,12.80
2018-10-12T16:12:08.164Z,10.53
2018-10-12T16:17:11.807Z,11.07
2018-10-12T16:22:15.439Z,9.53
2018-10-12T16:27:19.051Z,11.07
2018-10-12T16:32:22.706Z,11.97
2018-10-12T16:37:26.325Z,11.23
2018-10-12T16:42:29.943Z,10.27
2018-10-12T16:47:33.594Z,9.27
2018-10-12T16:52:37.226Z,11.73
2018-10-12T16:57:40.985Z,12.20
2018-10-12T17:02:44.578Z,11.07
2018-10-12T17:07:48.212Z,11.37
2018-10-12T17:12:51.927Z,10.80
2018-10-12T17:17:56.605Z,11.70
2018-10-12T17:23:00.214Z,11.30
2018-10-12T17:28:03.827Z,12.17
2018-10-12T17:33:07.475Z,11.93
2018-10-12T17:38:11.131Z,13.00
2018-10-12T17:43:14.774Z,11.30
2018-10-12T17:48:18.391Z,11.83
2018-10-12T17:53:22.027Z,13.10
2018-10-12T17:58:25.679Z,12.57
2018-10-12T18:03:29.311Z,13.50
2018-10-12T18:08:33.183Z,14.90
2018-10-12T18:13:36.802Z,13.60
2018-10-12T18:18:40.431Z,14.10
2018-10-12T18:23:44.022Z,14.13
2018-10-12T18:28:47.643Z,13.80
2018-10-12T18:33:51.267Z,14.37
2018-10-12T18:38:54.926Z,14.50
2018-10-12T18:43:58.487Z,15.20
2018-10-12T18:49:02.207Z,14.73
2018-10-12T18:54:05.907Z,14.93
2018-10-12T18:59:09.456Z,13.27
2018-10-12T19:04:13.091Z,14.83
2018-10-12T19:09:16.707Z,16.30
2018-10-12T19:14:20.318Z,13.40
2018-10-12T19:19:23.962Z,15.00
2018-10-12T19:24:27.535Z,16.53
2018-10-12T19:29:31.146Z,17.47
2018-10-12T19:34:34.763Z,15.00
2018-10-12T19:39:38.388Z,17.37
2018-10-12T19:44:42.014Z,16.10
2018-10-12T19:49:45.640Z,16.33
2018-10-12T19:54:49.248Z,18.47
2018-10-12T19:59:52.883Z,17.77
2018-10-12T20:04:56.514Z,16.10
2018-10-12T20:10:00.155Z,18.93
2018-10-12T20:15:03.794Z,17.37
2018-10-12T20:20:07.536Z,21.23
2018-10-12T20:25:11.159Z,17.47
2018-10-12T20:30:14.827Z,20.40
2018-10-12T20:35:18.487Z,21.67
2018-10-12T20:40:22.101Z,19.87
2018-10-12T20:45:25.739Z,19.67
2018-10-12T20:50:29.382Z,22.40
2018-10-12T20:55:32.983Z,21.47
2018-10-12T21:00:36.683Z,18.93
2018-10-12T21:05:40.291Z,20.70
2018-10-12T21:10:43.907Z,19.37
2018-10-12T21:15:47.518Z,18.43
2018-10-12T21:20:51.146Z,20.90
2018-10-12T21:25:54.780Z,20.47
2018-10-12T21:30:58.418Z,20.27
2018-10-12T21:36:02.055Z,20.37
2018-10-12T21:41:05.714Z,19.93
2018-10-12T21:46:09.362Z,21.37
2018-10-12T21:51:13.084Z,20.70
2018-10-12T21:56:16.708Z,21.37
2018-10-12T22:01:20.353Z,21.57
2018-10-12T22:06:28.415Z,20.10
2018-10-12T22:11:32.066Z,21.10
2018-10-12T22:16:35.682Z,20.10
2018-10-12T22:21:39.385Z,21.43
2018-10-12T22:26:43.004Z,21.67
2018-10-12T22:31:46.640Z,20.57
2018-10-12T22:36:50.280Z,20.97
2018-10-12T22:41:53.939Z,22.30
2018-10-12T22:46:57.555Z,22.23
2018-10-12T22:52:01.174Z,23.13
2018-10-12T22:57:04.803Z,21.80
2018-10-12T23:02:08.447Z,22.70
2018-10-12T23:07:12.083Z,24.30
2018-10-12T23:12:15.704Z,21.23
2018-10-12T23:17:19.318Z,22.77
2018-10-12T23:22:22.982Z,21.27
2018-10-12T23:27:26.591Z,21.10
2018-10-12T23:32:30.248Z,21.77
2018-10-12T23:37:33.990Z,21.00
2018-10-12T23:42:37.666Z,21.93
2018-10-12T23:47:41.292Z,21.60
2018-10-12T23:52:44.932Z,20.53
2018-10-12T23:57:48.564Z,22.53
